createdAt,value
2022-12-31T00:01:49.244Z,23.98
2022-12-31T00:04:15.998Z,20.63
2022-12-31T00:06:42.473Z,21.27
2022-12-31T00:09:10.397Z,20.38
2022-12-31T00:11:38.097Z,17.25
2022-12-31T00:14:04.849Z,24.58
2022-12-31T00:16:37.457Z,17.08
2022-12-31T00:19:05.622Z,20.23
2022-12-31T00:21:33.594Z,19.52
2022-12-31T00:24:01.524Z,20.98
2022-12-31T00:26:31.025Z,21.10
2022-12-31T00:28:59.128Z,18.73
2022-12-31T00:31:34.428Z,21.65
2022-12-31T00:34:01.306Z,13.32
2022-12-31T00:36:31.266Z,24.17
2022-12-31T00:38:59.583Z,20.50
2022-12-31T00:41:27.267Z,19.85
2022-12-31T00:43:55.102Z,14.95
2022-12-31T00:46:22.208Z,21.67
2022-12-31T00:48:49.027Z,14.82
2022-12-31T00:51:17.763Z,17.65
2022-12-31T00:53:44.469Z,17.40
2022-12-31T00:56:14.486Z,13.15
2022-12-31T00:58:41.173Z,19.55
2022-12-31T01:01:13.494Z,14.45
2022-12-31T01:03:40.465Z,16.02
2022-12-31T01:06:07.729Z,17.73
2022-12-31T01:08:34.788Z,15.75
2022-12-31T01:11:22.521Z,18.52
2022-12-31T01:13:59.159Z,19.05
2022-12-31T01:16:50.653Z,19.42
2022-12-31T01:19:27.221Z,18.50
2022-12-31T01:21:54.945Z,19.05
2022-12-31T01:24:21.982Z,19.77
2022-12-31T01:26:48.795Z,16.40
2022-12-31T01:29:16.989Z,19.83
2022-12-31T01:31:43.775Z,18.02
2022-12-31T01:34:10.458Z,15.35
2022-12-31T01:36:38.217Z,24.48
2022-12-31T01:39:06.799Z,19.00
2022-12-31T01:41:45.984Z,15.20
2022-12-31T01:44:12.480Z,16.30
2022-12-31T01:46:43.892Z,14.82
2022-12-31T01:49:39.372Z,17.55
2022-12-31T01:52:12.277Z,21.58
2022-12-31T01:54:44.561Z,16.60
2022-12-31T01:57:12.284Z,15.85
2022-12-31T01:59:39.033Z,21.67
2022-12-31T02:02:06.028Z,16.83
2022-12-31T02:04:32.887Z,14.77
2022-12-31T02:07:08.167Z,27.02
2022-12-31T02:09:38.437Z,21.73
2022-12-31T02:12:06.326Z,19.83
2022-12-31T02:14:40.952Z,29.40
2022-12-31T02:17:24.383Z,21.05
2022-12-31T02:20:09.539Z,21.50
2022-12-31T02:23:13.981Z,20.10
2022-12-31T02:26:11.051Z,25.83
2022-12-31T02:29:15.146Z,19.85
2022-12-31T02:31:47.658Z,18.55
2022-12-31T02:34:33.785Z,15.73
2022-12-31T02:37:04.587Z,16.70
2022-12-31T02:39:32.679Z,23.73
2022-12-31T02:42:00.271Z,21.08
2022-12-31T02:44:28.186Z,20.70
2022-12-31T02:47:08.041Z,13.73
2022-12-31T02:49:43.838Z,23.55
2022-12-31T02:52:46.961Z,17.98
2022-12-31T02:55:28.529Z,20.30
2022-12-31T02:58:01.157Z,18.35
2022-12-31T03:00:50.140Z,15.85
2022-12-31T03:03:19.125Z,17.48
2022-12-31T03:05:49.065Z,16.42
2022-12-31T03:08:26.229Z,19.20
2022-12-31T03:10:52.831Z,13.82
2022-12-31T03:13:19.413Z,19.92
2022-12-31T03:15:45.919Z,20.52
2022-12-31T03:18:39.453Z,14.52
2022-12-31T03:21:30.601Z,20.83
2022-12-31T03:24:15.712Z,21.15
2022-12-31T03:26:42.294Z,21.60
2022-12-31T03:29:08.787Z,15.52
2022-12-31T03:31:35.723Z,18.63
2022-12-31T03:34:02.230Z,17.02
2022-12-31T03:36:28.802Z,20.60
2022-12-31T03:38:55.382Z,15.25
2022-12-31T03:41:24.791Z,15.52
2022-12-31T03:43:51.303Z,15.93
2022-12-31T03:46:17.996Z,27.48
2022-12-31T03:48:44.566Z,15.52
2022-12-31T03:51:11.054Z,21.15
2022-12-31T03:53:37.587Z,18.67
2022-12-31T03:56:04.415Z,24.88
2022-12-31T03:58:30.916Z,18.65
2022-12-31T04:00:57.503Z,17.40
2022-12-31T04:03:24.094Z,19.63
2022-12-31T04:05:55.276Z,17.65
2022-12-31T04:08:22.092Z,20.83
2022-12-31T04:10:48.564Z,23.05
2022-12-31T04:13:15.061Z,17.75
2022-12-31T04:15:41.655Z,20.58
2022-12-31T04:18:08.162Z,19.80
2022-12-31T04:20:34.716Z,27.83
2022-12-31T04:23:01.200Z,21.08
2022-12-31T04:25:27.691Z,19.40
2022-12-31T04:27:54.235Z,13.18
2022-12-31T04:30:20.723Z,22.80
2022-12-31T04:32:47.261Z,22.60
2022-12-31T04:35:13.793Z,20.33
2022-12-31T04:37:40.362Z,22.85
2022-12-31T04:40:09.012Z,18.13
2022-12-31T04:42:36.612Z,16.42
2022-12-31T04:45:04.212Z,14.30
2022-12-31T04:47:30.912Z,16.27
2022-12-31T04:49:57.465Z,16.23
2022-12-31T04:52:24.061Z,17.35
2022-12-31T04:54:50.536Z,15.15
2022-12-31T04:57:17.224Z,16.33
2022-12-31T04:59:43.778Z,12.85
2022-12-31T05:02:10.533Z,15.73
2022-12-31T05:04:37.192Z,17.92
2022-12-31T05:07:03.795Z,17.83
2022-12-31T05:09:31.053Z,20.50
2022-12-31T05:11:57.803Z,19.83
2022-12-31T05:14:24.384Z,15.88
2022-12-31T05:16:51.164Z,15.52
2022-12-31T05:19:17.993Z,14.93
2022-12-31T05:22:04.469Z,14.60
2022-12-31T05:24:31.137Z,20.48
2022-12-31T05:26:57.668Z,16.10
2022-12-31T05:29:24.175Z,14.75
2022-12-31T05:31:50.683Z,13.55
2022-12-31T05:34:17.204Z,18.90
2022-12-31T05:36:43.706Z,25.88
2022-12-31T05:39:10.909Z,18.92
2022-12-31T05:41:37.375Z,18.75
2022-12-31T05:44:04.021Z,17.90
2022-12-31T05:46:30.585Z,15.65
2022-12-31T05:48:57.094Z,19.35
2022-12-31T05:51:23.623Z,19.55
2022-12-31T05:53:50.105Z,19.13
2022-12-31T05:56:17.881Z,22.45
2022-12-31T05:58:44.388Z,26.08
2022-12-31T06:01:10.934Z,19.10
2022-12-31T06:03:37.590Z,21.77
2022-12-31T06:06:04.329Z,16.35
2022-12-31T06:08:30.839Z,19.52
2022-12-31T06:10:57.350Z,21.10
2022-12-31T06:13:23.931Z,17.50
2022-12-31T06:15:50.501Z,17.20
2022-12-31T06:18:16.991Z,14.45
2022-12-31T06:20:44.171Z,17.75
2022-12-31T06:23:10.790Z,17.52
2022-12-31T06:25:37.690Z,20.52
2022-12-31T06:28:05.108Z,20.17
2022-12-31T06:30:31.779Z,20.50
2022-12-31T06:32:58.325Z,26.50
2022-12-31T06:35:24.800Z,22.13
2022-12-31T06:37:52.114Z,19.65
2022-12-31T06:40:18.623Z,13.05
2022-12-31T06:42:45.642Z,17.02
2022-12-31T06:45:12.187Z,16.42
2022-12-31T06:47:38.774Z,16.60
2022-12-31T06:50:07.002Z,19.88
2022-12-31T06:52:33.800Z,9.95
2022-12-31T06:55:00.689Z,15.77
2022-12-31T06:57:27.601Z,18.02
2022-12-31T06:59:54.631Z,17.13
2022-12-31T07:02:27.070Z,16.70
2022-12-31T07:05:09.084Z,19.95
2022-12-31T07:08:08.707Z,21.13
2022-12-31T07:10:46.377Z,15.98
2022-12-31T07:13:31.197Z,20.05
2022-12-31T07:19:07.343Z,16.88
2022-12-31T07:21:37.872Z,18.60
2022-12-31T07:24:09.312Z,11.48
2022-12-31T07:27:11.391Z,19.42
2022-12-31T07:30:11.098Z,17.60
2022-12-31T07:32:59.433Z,12.77
2022-12-31T07:35:34.732Z,14.05
2022-12-31T07:38:04.760Z,19.02
2022-12-31T07:40:42.051Z,16.88
2022-12-31T07:43:16.456Z,15.20
2022-12-31T07:46:09.263Z,10.63
2022-12-31T07:48:36.109Z,15.55
2022-12-31T07:51:02.879Z,16.17
2022-12-31T07:53:29.650Z,15.05
2022-12-31T07:56:05.465Z,15.98
2022-12-31T07:58:40.811Z,13.30
2022-12-31T08:01:13.736Z,12.82
2022-12-31T08:04:21.179Z,10.27
2022-12-31T08:07:18.830Z,14.38
2022-12-31T08:10:03.102Z,11.05
2022-12-31T08:12:34.810Z,13.40
2022-12-31T08:15:02.079Z,10.02
2022-12-31T08:17:28.745Z,16.27
2022-12-31T08:19:55.475Z,10.80
2022-12-31T08:22:40.595Z,11.15
2022-12-31T08:25:34.711Z,13.63
2022-12-31T08:28:20.981Z,11.50
2022-12-31T08:31:03.190Z,14.30
2022-12-31T08:34:17.596Z,15.10
2022-12-31T08:37:20.981Z,26.35
2022-12-31T08:40:06.474Z,10.25
2022-12-31T08:42:40.205Z,17.05
2022-12-31T08:45:36.345Z,17.13
2022-12-31T08:48:14.253Z,11.68
2022-12-31T08:50:41.198Z,13.93
2022-12-31T08:53:08.023Z,15.38
2022-12-31T08:55:34.825Z,17.38
2022-12-31T08:58:43.448Z,15.85
2022-12-31T09:01:13.765Z,9.38
2022-12-31T09:04:26.298Z,8.70
2022-12-31T09:07:00.458Z,13.48
2022-12-31T09:09:33.217Z,14.88
2022-12-31T09:12:08.559Z,18.23
2022-12-31T09:14:48.917Z,11.98
2022-12-31T09:17:24.292Z,16.00
2022-12-31T09:19:51.099Z,12.02
2022-12-31T09:22:17.888Z,16.60
2022-12-31T09:24:44.663Z,11.38
2022-12-31T09:27:36.053Z,13.93
2022-12-31T09:30:07.127Z,11.60
2022-12-31T09:33:05.794Z,14.43
2022-12-31T09:35:46.722Z,18.10
2022-12-31T09:38:43.338Z,9.50
2022-12-31T09:41:14.769Z,6.75
2022-12-31T09:43:58.989Z,11.30
2022-12-31T09:46:45.195Z,14.30
2022-12-31T09:50:12.565Z,17.45
2022-12-31T09:53:09.055Z,12.98
2022-12-31T09:55:54.500Z,12.48
2022-12-31T09:58:39.586Z,9.68
2022-12-31T10:01:12.312Z,7.10
2022-12-31T10:04:03.421Z,11.93
2022-12-31T10:06:42.133Z,8.98
2022-12-31T10:09:16.723Z,9.10
2022-12-31T10:12:04.480Z,5.65
2022-12-31T10:15:07.654Z,13.52
2022-12-31T10:18:15.429Z,6.28
2022-12-31T10:20:57.890Z,13.15
2022-12-31T10:23:54.543Z,10.60
2022-12-31T10:26:36.942Z,9.18
2022-12-31T10:29:03.408Z,12.38
2022-12-31T10:31:48.420Z,11.55
2022-12-31T10:34:25.594Z,13.13
2022-12-31T10:37:10.596Z,10.57
2022-12-31T10:39:55.190Z,9.30
2022-12-31T10:42:31.145Z,14.13
2022-12-31T10:44:58.235Z,11.88
2022-12-31T10:47:54.928Z,15.65
2022-12-31T10:50:33.556Z,15.98
2022-12-31T10:53:08.903Z,15.32
2022-12-31T10:55:53.199Z,12.35
2022-12-31T10:58:25.436Z,14.77
2022-12-31T11:01:25.002Z,11.60
2022-12-31T11:04:25.214Z,12.15
2022-12-31T11:07:03.911Z,12.50
2022-12-31T11:10:00.747Z,11.93
2022-12-31T11:12:48.454Z,8.13
2022-12-31T11:15:21.374Z,9.88
2022-12-31T11:18:15.819Z,8.60
2022-12-31T11:21:00.513Z,19.42
2022-12-31T11:23:35.480Z,16.55
2022-12-31T11:26:07.665Z,13.93
2022-12-31T11:29:08.104Z,12.43
2022-12-31T11:32:18.885Z,9.27
2022-12-31T11:35:14.942Z,15.23
2022-12-31T11:37:46.850Z,11.57
2022-12-31T11:40:28.558Z,14.23
2022-12-31T11:43:25.346Z,8.05
2022-12-31T11:46:09.726Z,13.15
2022-12-31T11:49:05.380Z,14.20
2022-12-31T11:51:50.642Z,9.95
2022-12-31T11:54:49.580Z,8.73
2022-12-31T11:57:35.665Z,11.07
2022-12-31T12:00:14.781Z,12.15
2022-12-31T12:02:47.839Z,10.73
2022-12-31T12:05:18.503Z,12.68
2022-12-31T12:07:45.064Z,7.53
2022-12-31T12:10:31.996Z,11.45
2022-12-31T12:13:11.747Z,8.38
2022-12-31T12:15:38.427Z,13.10
2022-12-31T12:18:09.394Z,11.55
2022-12-31T12:20:38.807Z,8.18
2022-12-31T12:23:24.433Z,11.40
2022-12-31T12:25:52.012Z,8.63
2022-12-31T12:28:18.505Z,14.60
2022-12-31T12:30:47.344Z,11.32
2022-12-31T12:33:20.370Z,12.38
2022-12-31T12:35:48.079Z,9.75
2022-12-31T12:38:19.302Z,14.48
2022-12-31T12:40:56.339Z,10.68
2022-12-31T12:43:34.708Z,10.80
2022-12-31T12:46:05.393Z,11.02
2022-12-31T12:48:43.488Z,13.00
2022-12-31T12:51:18.628Z,12.77
2022-12-31T12:54:11.822Z,14.35
2022-12-31T12:56:56.711Z,10.38
2022-12-31T12:59:29.295Z,9.02
2022-12-31T13:02:28.898Z,7.82
2022-12-31T13:05:15.744Z,14.73
2022-12-31T13:07:54.313Z,7.55
2022-12-31T13:10:41.735Z,23.33
2022-12-31T13:13:56.239Z,8.65
2022-12-31T13:16:45.949Z,12.30
2022-12-31T13:19:42.877Z,9.48
2022-12-31T13:22:28.040Z,7.50
2022-12-31T13:25:04.049Z,5.80
2022-12-31T13:27:44.384Z,8.38
2022-12-31T13:30:50.816Z,7.90
2022-12-31T13:33:18.987Z,8.48
2022-12-31T13:35:51.267Z,12.27
2022-12-31T13:38:22.737Z,11.95
2022-12-31T13:40:52.154Z,10.68
2022-12-31T13:43:45.799Z,4.45
2022-12-31T13:46:21.425Z,8.18
2022-12-31T13:48:53.564Z,8.38
2022-12-31T13:51:44.622Z,6.35
2022-12-31T13:54:29.982Z,8.18
2022-12-31T13:57:02.058Z,12.63
2022-12-31T13:59:34.509Z,11.32
2022-12-31T14:02:13.192Z,9.82
2022-12-31T14:04:47.764Z,10.20
2022-12-31T14:07:25.684Z,11.20
2022-12-31T14:09:55.754Z,7.28
2022-12-31T14:12:44.521Z,13.70
2022-12-31T14:15:28.973Z,10.23
2022-12-31T14:18:18.058Z,10.35
2022-12-31T14:20:49.258Z,5.78
2022-12-31T14:23:53.321Z,14.10
2022-12-31T14:26:25.973Z,16.52
2022-12-31T14:29:06.298Z,7.57
2022-12-31T14:31:49.821Z,7.68
2022-12-31T14:34:38.754Z,14.57
2022-12-31T14:37:24.158Z,10.82
2022-12-31T14:40:35.253Z,13.90
2022-12-31T14:43:20.262Z,12.55
2022-12-31T14:46:13.022Z,14.43
2022-12-31T14:48:42.523Z,11.10
2022-12-31T14:51:10.619Z,7.60
2022-12-31T14:53:37.194Z,12.38
2022-12-31T14:56:06.610Z,14.57
2022-12-31T14:58:40.957Z,15.18
2022-12-31T15:03:50.617Z,16.83
2022-12-31T15:06:23.084Z,15.85
2022-12-31T15:09:28.027Z,13.13
2022-12-31T15:12:22.278Z,14.18
2022-12-31T15:15:00.733Z,16.08
2022-12-31T15:17:48.918Z,16.00
2022-12-31T15:20:44.241Z,21.98
2022-12-31T15:23:22.011Z,13.45
2022-12-31T15:25:53.446Z,14.70
2022-12-31T15:28:34.137Z,17.65
2022-12-31T15:31:19.400Z,18.33
2022-12-31T15:34:06.047Z,15.98
2022-12-31T15:36:38.837Z,12.07
2022-12-31T15:39:11.882Z,18.63
2022-12-31T15:42:27.316Z,21.95
2022-12-31T15:44:46.217Z,16.05
2022-12-31T15:47:19.837Z,21.02
2022-12-31T15:49:47.635Z,17.27
2022-12-31T15:52:20.586Z,14.68
2022-12-31T15:54:53.057Z,15.15
2022-12-31T15:57:30.086Z,19.83
2022-12-31T16:00:02.271Z,10.45
2022-12-31T16:02:29.225Z,18.38
2022-12-31T16:04:56.042Z,19.83
2022-12-31T16:07:24.529Z,19.40
2022-12-31T16:09:58.178Z,20.35
2022-12-31T16:12:33.064Z,15.70
2022-12-31T16:15:01.736Z,14.98
2022-12-31T16:17:28.240Z,18.33
2022-12-31T16:19:55.648Z,15.70
2022-12-31T16:22:36.053Z,18.83
2022-12-31T16:25:29.539Z,13.85
2022-12-31T16:27:51.238Z,12.68
2022-12-31T16:30:28.644Z,10.95
2022-12-31T16:32:59.520Z,15.55
2022-12-31T16:35:26.081Z,17.58
2022-12-31T16:38:13.777Z,12.18
2022-12-31T16:40:59.211Z,15.40
2022-12-31T16:43:29.949Z,15.38
2022-12-31T16:45:58.879Z,14.27
2022-12-31T16:48:26.517Z,12.88
2022-12-31T16:50:56.005Z,9.93
2022-12-31T16:53:26.608Z,11.90
2022-12-31T16:56:01.502Z,12.35
2022-12-31T16:58:33.084Z,13.38
2022-12-31T17:01:06.917Z,15.35
2022-12-31T17:03:35.538Z,15.50
2022-12-31T17:06:09.603Z,15.40
2022-12-31T17:08:58.680Z,15.98
2022-12-31T17:11:28.819Z,15.13
2022-12-31T17:14:00.745Z,16.13
2022-12-31T17:16:27.838Z,13.68
2022-12-31T17:18:54.672Z,19.55
2022-12-31T17:21:26.159Z,15.35
2022-12-31T17:23:56.662Z,17.38
2022-12-31T17:26:26.643Z,11.45
2022-12-31T17:28:55.282Z,11.75
2022-12-31T17:31:39.449Z,13.88
2022-12-31T17:34:15.194Z,8.93
2022-12-31T17:36:52.172Z,14.00
2022-12-31T17:39:22.557Z,17.90
2022-12-31T17:41:52.563Z,15.60
2022-12-31T17:44:22.598Z,13.65
2022-12-31T17:46:50.628Z,20.63
2022-12-31T17:49:17.866Z,21.00
2022-12-31T17:51:47.681Z,14.02
2022-12-31T17:54:15.866Z,21.13
2022-12-31T17:56:43.248Z,22.50
2022-12-31T17:59:15.705Z,21.10
2022-12-31T18:01:42.492Z,19.15
2022-12-31T18:04:15.385Z,26.70
2022-12-31T18:06:42.915Z,18.17
2022-12-31T18:09:09.987Z,22.02
2022-12-31T18:11:38.563Z,21.38
2022-12-31T18:14:05.141Z,25.98
2022-12-31T18:16:31.874Z,22.40
2022-12-31T18:19:00.588Z,23.38
2022-12-31T18:21:34.137Z,29.60
2022-12-31T18:26:28.426Z,20.65
2022-12-31T18:29:01.224Z,29.83
2022-12-31T18:31:29.951Z,26.98
2022-12-31T18:33:58.235Z,21.00
2022-12-31T18:36:25.873Z,30.27
2022-12-31T18:38:53.632Z,30.88
2022-12-31T18:41:23.938Z,23.48
2022-12-31T18:43:50.773Z,29.25
2022-12-31T18:46:22.717Z,27.02
2022-12-31T18:48:49.470Z,24.58
2022-12-31T18:51:29.280Z,26.17
2022-12-31T18:53:58.777Z,31.20
2022-12-31T18:56:25.384Z,28.23
2022-12-31T18:58:52.315Z,29.27
2022-12-31T19:01:27.850Z,27.70
2022-12-31T19:03:59.253Z,32.33
2022-12-31T19:06:26.628Z,27.20
2022-12-31T19:08:54.224Z,32.80
2022-12-31T19:11:21.602Z,28.70
2022-12-31T19:13:49.039Z,32.17
2022-12-31T19:16:15.721Z,34.97
2022-12-31T19:18:42.553Z,30.95
2022-12-31T19:21:15.858Z,27.92
2022-12-31T19:23:42.437Z,29.67
2022-12-31T19:26:14.687Z,30.65
2022-12-31T19:28:41.254Z,30.25
2022-12-31T19:31:07.947Z,30.20
2022-12-31T19:33:34.436Z,29.45
2022-12-31T19:36:01.168Z,24.15
2022-12-31T19:38:32.545Z,26.10
2022-12-31T19:41:00.122Z,32.17
2022-12-31T19:43:27.656Z,37.90
2022-12-31T19:45:54.230Z,32.35
2022-12-31T19:48:28.550Z,25.95
2022-12-31T19:50:58.755Z,24.70
2022-12-31T19:53:27.737Z,26.95
2022-12-31T19:55:54.427Z,28.13
2022-12-31T19:58:25.649Z,29.65
2022-12-31T20:00:58.229Z,22.75
2022-12-31T20:03:28.888Z,25.77
2022-12-31T20:06:07.980Z,27.30
2022-12-31T20:08:35.803Z,33.45
2022-12-31T20:11:17.436Z,48.15
2022-12-31T20:13:46.017Z,36.58
2022-12-31T20:16:15.638Z,26.65
2022-12-31T20:18:43.792Z,31.40
2022-12-31T20:21:17.653Z,30.98
2022-12-31T20:23:46.087Z,37.05
2022-12-31T20:26:13.106Z,29.92
2022-12-31T20:28:40.038Z,22.50
2022-12-31T20:31:12.716Z,26.95
2022-12-31T20:33:39.988Z,25.58
2022-12-31T20:36:09.203Z,28.63
2022-12-31T20:38:35.969Z,28.02
2022-12-31T20:41:08.212Z,28.95
2022-12-31T20:43:35.407Z,26.02
2022-12-31T20:46:18.902Z,34.63
2022-12-31T20:48:47.044Z,20.95
2022-12-31T20:51:15.326Z,22.38
2022-12-31T20:53:50.707Z,33.75
2022-12-31T20:56:18.530Z,29.13
2022-12-31T20:58:45.136Z,30.70
2022-12-31T21:01:12.182Z,28.83
2022-12-31T21:06:28.957Z,29.20
2022-12-31T21:08:57.238Z,27.80
2022-12-31T21:11:42.151Z,25.38
2022-12-31T21:14:08.641Z,25.42
2022-12-31T21:16:35.457Z,26.90
2022-12-31T21:19:02.710Z,27.02
2022-12-31T21:21:29.232Z,24.58
2022-12-31T21:23:55.862Z,23.77
2022-12-31T21:26:22.448Z,25.75
2022-12-31T21:28:48.959Z,26.17
2022-12-31T21:31:15.552Z,34.67
2022-12-31T21:33:46.131Z,26.48
2022-12-31T21:36:13.665Z,29.35
2022-12-31T21:38:40.685Z,22.42
2022-12-31T21:41:08.799Z,27.00
2022-12-31T21:43:35.474Z,28.42
2022-12-31T21:46:04.491Z,23.42
2022-12-31T21:48:31.454Z,32.28
2022-12-31T21:51:10.257Z,25.15
2022-12-31T21:53:37.489Z,23.77
2022-12-31T21:56:13.586Z,29.48
2022-12-31T21:58:42.712Z,25.02
2022-12-31T22:01:37.645Z,33.42
2022-12-31T22:04:05.707Z,34.65
2022-12-31T22:06:35.865Z,29.52
2022-12-31T22:09:02.946Z,34.28
2022-12-31T22:11:29.542Z,40.13
2022-12-31T22:13:56.276Z,31.13
2022-12-31T22:16:23.174Z,31.17
2022-12-31T22:18:50.321Z,30.02
2022-12-31T22:21:22.247Z,42.33
2022-12-31T22:23:51.945Z,32.42
2022-12-31T22:26:21.196Z,36.97
2022-12-31T22:28:48.364Z,28.35
2022-12-31T22:31:17.823Z,33.47
2022-12-31T22:33:44.873Z,37.22
2022-12-31T22:36:15.222Z,37.97
2022-12-31T22:38:42.624Z,40.45
2022-12-31T22:41:18.591Z,31.42
2022-12-31T22:43:48.171Z,26.92
2022-12-31T22:46:20.801Z,41.53
2022-12-31T22:48:48.212Z,28.80
2022-12-31T22:51:15.942Z,44.70
2022-12-31T22:53:43.544Z,36.00
2022-12-31T22:56:12.650Z,36.85
2022-12-31T22:58:39.507Z,31.23
2022-12-31T23:01:27.189Z,28.38
2022-12-31T23:03:55.237Z,40.10
2022-12-31T23:06:23.851Z,30.65
2022-12-31T23:09:10.796Z,35.38
2022-12-31T23:11:39.106Z,41.10
2022-12-31T23:14:25.935Z,36.85
2022-12-31T23:17:29.211Z,35.63
2022-12-31T23:20:16.005Z,35.90
2022-12-31T23:23:00.884Z,37.08
2022-12-31T23:25:27.430Z,38.17
2022-12-31T23:27:53.903Z,35.53
2022-12-31T23:30:20.369Z,31.45
2022-12-31T23:32:46.885Z,26.27
2022-12-31T23:35:13.930Z,29.67
2022-12-31T23:37:40.623Z,42.55
2022-12-31T23:40:07.836Z,35.75
2022-12-31T23:42:34.407Z,35.20
2022-12-31T23:45:00.883Z,37.97
2022-12-31T23:47:27.390Z,33.92
2022-12-31T23:49:53.859Z,32.35
2022-12-31T23:52:20.371Z,30.77
2022-12-31T23:54:46.859Z,24.95
2022-12-31T23:57:13.396Z,43.22
2022-12-31T23:59:40.482Z,31.15
